Morrison, Oklahoma
Current Conditions -  °F | °C
As of 6:53 PM on Monday 26 Jan 2015 (Local Time) from KSWO Reporting Station
Clear Clear  
Wind Chill: 60°   Ceiling: Unl
Heat Index: 60°   Visibility: 10mi
Dew Point: 34°   Wind: 3mph
Humidity: 38%   Direction: 310°NW
Pressure: 30.03"   Gusts: NA
Location:  36.3°N, 97.01°W
Report Text: KSWO 270053Z 31003KT 10SM CLR 16/01 A3003 RMK AO2 SLP169 T01560011
Loading
Personal Weather Stations






























Interactive Weather Map New forecast layout! Learn more

10-Day Weather Forecast

Advertisements
Track Severe Weather on mobile